Time;durP1;ratioP1;P1;durP2;ratioP2;P2;SDS_P1;SDS_P2;PMS_P1;PMS_P2;Temp;Humidity;BMP_temperature;BMP_pressure;BME280_temperature;BME280_humidity;BME280_pressure;Samples;Min_cycle;Max_cycle;Signal;HPM_P1;HPM_P2
2023/05/13 00:01:37;;;;;;;;;;;307.50;2304.00;;;;;;5024138;28;19905;-72
2023/05/13 00:04:06;;;;;;;;;;;307.50;2304.00;;;;;;5018308;28;19921;-72
2023/05/13 00:06:33;;;;;;;;;;;307.50;2304.00;;;;;;5018391;28;19905;-72
2023/05/13 00:08:59;;;;;;;;;;;307.50;2304.00;;;;;;5021167;28;19913;-72
2023/05/13 00:11:25;;;;;;;;;;;307.50;2304.00;;;;;;5015645;28;19912;-75
2023/05/13 00:13:51;;;;;;;;;;;307.60;2304.00;;;;;;5018218;28;19912;-71
2023/05/13 00:16:16;;;;;;;;;;;307.50;2304.00;;;;;;5018234;28;19906;-72
2023/05/13 00:18:42;;;;;;;;;;;307.60;2304.00;;;;;;5015586;28;19906;-72
2023/05/13 00:21:07;;;;;;;;;;;307.60;2304.00;;;;;;5018149;28;19952;-72
2023/05/13 00:23:33;;;;;;;;;;;307.60;2304.00;;;;;;5023355;28;19905;-72
2023/05/13 00:25:59;;;;;;;;;;;307.60;2304.00;;;;;;5022660;28;19948;-72
2023/05/13 00:28:24;;;;;;;;;;;307.60;2304.00;;;;;;5021885;28;19960;-73
2023/05/13 00:30:50;;;;;;;;;;;307.50;2304.00;;;;;;5016047;28;19905;-72
2023/05/13 00:33:16;;;;;;;;;;;307.60;2304.00;;;;;;5027834;28;19958;-72
2023/05/13 00:35:42;;;;;;;;;;;307.60;2304.00;;;;;;5016130;28;19909;-72
2023/05/13 00:38:07;;;;;;;;;;;307.60;2304.00;;;;;;5015674;28;19916;-72
2023/05/13 00:40:35;;;;;;;;;;;307.60;2304.00;;;;;;5015954;28;19912;-73
2023/05/13 00:43:01;;;;;;;;;;;307.60;2304.00;;;;;;5022806;28;19905;-72
2023/05/13 00:45:27;;;;;;;;;;;307.60;2304.00;;;;;;5022335;28;19905;-72
2023/05/13 00:47:53;;;;;;;;;;;307.60;2304.00;;;;;;5027578;28;20032;-74
2023/05/13 00:50:18;;;;;;;;;;;307.60;2304.00;;;;;;5015406;28;19906;-72
2023/05/13 00:52:45;;;;;;;;;;;307.70;2304.00;;;;;;5015413;28;19913;-72
2023/05/13 00:55:10;;;;;;;;;;;307.70;2304.00;;;;;;5017206;28;19921;-72
2023/05/13 00:57:37;;;;;;;;;;;307.70;2304.00;;;;;;5026379;28;20316;-72
2023/05/13 01:00:04;;;;;;;;;;;307.80;2304.00;;;;;;5015318;28;19912;-72
2023/05/13 01:02:37;;;;;;;;;;;307.70;2304.00;;;;;;5015460;28;19905;-72
2023/05/13 01:05:06;;;;;;;;;;;307.70;2304.00;;;;;;5015251;28;19905;-72
2023/05/13 01:07:43;;;;;;;;;;;307.70;2304.00;;;;;;5026510;28;19960;-72
2023/05/13 01:10:19;;;;;;;;;;;307.70;2304.00;;;;;;5015165;28;19905;-72
2023/05/13 01:12:45;;;;;;;;;;;307.80;2304.00;;;;;;5014944;28;19905;-72
2023/05/13 01:15:11;;;;;;;;;;;307.80;2304.00;;;;;;5023777;28;19944;-72
2023/05/13 01:17:41;;;;;;;;;;;307.70;2304.00;;;;;;5021632;28;19941;-72
2023/05/13 01:20:07;;;;;;;;;;;307.80;2304.00;;;;;;5025110;28;20358;-72
2023/05/13 01:22:32;;;;;;;;;;;307.80;2304.00;;;;;;5014774;28;19996;-72
2023/05/13 01:24:58;;;;;;;;;;;307.80;2304.00;;;;;;5014987;28;19952;-72
2023/05/13 01:27:24;;;;;;;;;;;307.70;2304.00;;;;;;5018282;28;19920;-72
2023/05/13 01:29:50;;;;;;;;;;;307.70;2304.00;;;;;;5034633;28;19949;-72
2023/05/13 01:32:16;;;;;;;;;;;307.70;2304.00;;;;;;5030329;28;19941;-72
2023/05/13 01:34:42;;;;;;;;;;;307.70;2304.00;;;;;;5014728;28;19924;-73
2023/05/13 01:37:08;;;;;;;;;;;307.60;2304.00;;;;;;5014557;28;20420;-71
2023/05/13 01:39:36;;;;;;;;;;;307.60;2304.00;;;;;;5026232;28;19905;-73
2023/05/13 01:42:02;;;;;;;;;;;307.60;2304.00;;;;;;5028721;28;20003;-72
2023/05/13 01:44:27;;;;;;;;;;;307.60;2304.00;;;;;;5027269;28;20011;-72
2023/05/13 01:46:53;;;;;;;;;;;307.60;2304.00;;;;;;5014467;28;19917;-71
2023/05/13 01:49:18;;;;;;;;;;;307.50;2304.00;;;;;;5014452;28;19905;-71
2023/05/13 01:51:44;;;;;;;;;;;307.50;2304.00;;;;;;5018021;28;19912;-72
2023/05/13 01:54:10;;;;;;;;;;;307.50;2304.00;;;;;;5017933;28;19922;-72
2023/05/13 01:56:35;;;;;;;;;;;307.60;2304.00;;;;;;5016646;28;19956;-72
2023/05/13 01:59:01;;;;;;;;;;;307.60;2304.00;;;;;;5021456;28;20338;-72
2023/05/13 02:01:26;;;;;;;;;;;307.50;2304.00;;;;;;5020013;28;19906;-72
2023/05/13 02:03:52;;;;;;;;;;;307.50;2304.00;;;;;;5014323;28;20246;-72
2023/05/13 02:06:18;;;;;;;;;;;307.50;2304.00;;;;;;5015368;28;19913;-72
2023/05/13 02:08:44;;;;;;;;;;;307.50;2304.00;;;;;;5025784;28;19929;-71
2023/05/13 02:11:09;;;;;;;;;;;307.50;2304.00;;;;;;5015888;28;19913;-72
2023/05/13 02:13:35;;;;;;;;;;;307.60;2304.00;;;;;;5025446;28;19958;-73
2023/05/13 02:16:01;;;;;;;;;;;307.60;2304.00;;;;;;5013932;28;19928;-72
2023/05/13 02:18:26;;;;;;;;;;;307.60;2304.00;;;;;;5014237;28;19912;-71
2023/05/13 02:20:52;;;;;;;;;;;307.60;2304.00;;;;;;5013908;28;19918;-71
2023/05/13 02:23:17;;;;;;;;;;;307.60;2304.00;;;;;;5013852;28;19920;-75
2023/05/13 02:25:43;;;;;;;;;;;307.60;2304.00;;;;;;5014046;28;20419;-72
2023/05/13 02:28:09;;;;;;;;;;;307.60;2304.00;;;;;;5013818;28;19920;-72
2023/05/13 02:30:35;;;;;;;;;;;307.60;2304.00;;;;;;5013897;28;19905;-72
2023/05/13 02:33:00;;;;;;;;;;;307.70;2304.00;;;;;;5013919;28;20345;-72
2023/05/13 02:35:28;;;;;;;;;;;307.70;2304.00;;;;;;5013740;28;19905;-72
2023/05/13 02:37:55;;;;;;;;;;;307.60;2304.00;;;;;;5013713;28;19959;-72
2023/05/13 02:40:21;;;;;;;;;;;307.70;2304.00;;;;;;5013740;28;20345;-72
2023/05/13 02:42:46;;;;;;;;;;;307.70;2304.00;;;;;;5019279;28;19905;-76
2023/05/13 02:45:12;;;;;;;;;;;307.70;2304.00;;;;;;5021478;28;19996;-72
2023/05/13 02:47:38;;;;;;;;;;;307.70;2304.00;;;;;;5013612;28;19917;-72
2023/05/13 02:50:06;;;;;;;;;;;307.70;2304.00;;;;;;5013783;28;19906;-72
2023/05/13 02:52:34;;;;;;;;;;;307.70;2304.00;;;;;;5013457;28;19910;-72
2023/05/13 02:55:00;;;;;;;;;;;307.70;2304.00;;;;;;5027423;28;19929;-72
2023/05/13 02:57:26;;;;;;;;;;;307.60;2304.00;;;;;;5030080;28;19909;-72
2023/05/13 02:59:52;;;;;;;;;;;307.80;2304.00;;;;;;5017774;28;20247;-71
2023/05/13 03:02:17;;;;;;;;;;;307.70;2304.00;;;;;;5017628;28;19936;-72
2023/05/13 03:04:43;;;;;;;;;;;307.70;2304.00;;;;;;5017483;28;19905;-74
2023/05/13 03:07:09;;;;;;;;;;;307.70;2304.00;;;;;;5017371;28;20365;-73
2023/05/13 03:09:37;;;;;;;;;;;307.70;2304.00;;;;;;5017259;28;19943;-72
2023/05/13 03:12:06;;;;;;;;;;;307.70;2304.00;;;;;;5017363;28;19905;-72
2023/05/13 03:14:33;;;;;;;;;;;307.70;2304.00;;;;;;5016969;28;19905;-71
2023/05/13 03:16:59;;;;;;;;;;;307.70;2304.00;;;;;;5017248;28;19959;-71
2023/05/13 03:19:24;;;;;;;;;;;307.70;2304.00;;;;;;5016981;28;20323;-71
2023/05/13 03:21:50;;;;;;;;;;;307.70;2304.00;;;;;;5017220;28;20480;-71
2023/05/13 03:24:16;;;;;;;;;;;307.70;2304.00;;;;;;5016826;28;19956;-72
2023/05/13 03:26:41;;;;;;;;;;;307.60;2304.00;;;;;;5017141;28;19960;-72
2023/05/13 03:29:07;;;;;;;;;;;307.60;2304.00;;;;;;5016768;28;20278;-79
2023/05/13 03:31:32;;;;;;;;;;;307.60;2304.00;;;;;;5017041;28;19927;-71
2023/05/13 03:33:58;;;;;;;;;;;307.50;2304.00;;;;;;5016726;28;20264;-72
2023/05/13 03:36:23;;;;;;;;;;;307.50;2304.00;;;;;;5016918;28;19910;-72
2023/05/13 03:38:49;;;;;;;;;;;307.50;2304.00;;;;;;5022141;28;19909;-71
2023/05/13 03:41:16;;;;;;;;;;;307.40;2304.00;;;;;;5024385;28;19906;-72
2023/05/13 03:43:42;;;;;;;;;;;307.40;2304.00;;;;;;5029498;28;19905;-71
2023/05/13 03:46:07;;;;;;;;;;;307.50;2304.00;;;;;;5016676;28;19909;-71
2023/05/13 03:48:33;;;;;;;;;;;307.40;2304.00;;;;;;5016712;28;20012;-72
2023/05/13 03:50:58;;;;;;;;;;;307.40;2304.00;;;;;;5016664;28;19916;-72
2023/05/13 03:53:24;;;;;;;;;;;307.40;2304.00;;;;;;5016193;28;19925;-78
2023/05/13 03:55:50;;;;;;;;;;;307.40;2304.00;;;;;;5016416;28;19909;-72
2023/05/13 03:58:16;;;;;;;;;;;307.50;2304.00;;;;;;5016427;28;20397;-72
2023/05/13 04:00:45;;;;;;;;;;;307.40;2304.00;;;;;;5024384;28;20316;-72
2023/05/13 04:03:10;;;;;;;;;;;307.50;2304.00;;;;;;5033945;28;19905;-71
2023/05/13 04:05:36;;;;;;;;;;;307.40;2304.00;;;;;;5016567;28;20039;-72
2023/05/13 04:08:02;;;;;;;;;;;307.50;2304.00;;;;;;5031388;28;19913;-72
2023/05/13 04:10:27;;;;;;;;;;;307.50;2304.00;;;;;;5026959;28;20364;-79
2023/05/13 04:12:53;;;;;;;;;;;307.50;2304.00;;;;;;5016177;28;19918;-72
2023/05/13 04:15:18;;;;;;;;;;;307.50;2304.00;;;;;;5016080;28;19911;-71
2023/05/13 04:17:44;;;;;;;;;;;307.50;2304.00;;;;;;5027828;28;19905;-72
2023/05/13 04:20:10;;;;;;;;;;;307.60;2304.00;;;;;;5016094;28;19996;-71
2023/05/13 04:22:35;;;;;;;;;;;307.60;2304.00;;;;;;5028912;28;20383;-72
2023/05/13 04:25:01;;;;;;;;;;;307.60;2304.00;;;;;;5025891;28;19963;-72
2023/05/13 04:27:26;;;;;;;;;;;307.60;2304.00;;;;;;5018286;28;19913;-72
2023/05/13 04:29:52;;;;;;;;;;;307.60;2304.00;;;;;;5015871;28;19906;-72
2023/05/13 04:32:20;;;;;;;;;;;307.70;2304.00;;;;;;5015933;28;19909;-72
2023/05/13 04:34:49;;;;;;;;;;;307.70;2304.00;;;;;;5015970;28;19905;-71
2023/05/13 04:37:15;;;;;;;;;;;307.80;2304.00;;;;;;5021435;28;19905;-79
2023/05/13 04:39:42;;;;;;;;;;;307.80;2304.00;;;;;;5023110;28;19912;-72
2023/05/13 04:42:07;;;;;;;;;;;307.80;2304.00;;;;;;5015500;28;19909;-72
2023/05/13 04:44:33;;;;;;;;;;;307.80;2304.00;;;;;;5015620;28;19913;-80
2023/05/13 04:46:59;;;;;;;;;;;307.80;2304.00;;;;;;5028481;28;19996;-71
2023/05/13 04:49:25;;;;;;;;;;;307.90;2304.00;;;;;;5015578;28;20052;-72
2023/05/13 04:51:50;;;;;;;;;;;307.90;2304.00;;;;;;5015362;28;19905;-71
2023/05/13 04:54:16;;;;;;;;;;;307.90;2304.00;;;;;;5021767;28;19921;-72
2023/05/13 04:56:41;;;;;;;;;;;307.90;2304.00;;;;;;5020519;28;19992;-71
2023/05/13 04:59:07;;;;;;;;;;;307.90;2304.00;;;;;;5015254;28;20357;-72
2023/05/13 05:01:33;;;;;;;;;;;307.90;2304.00;;;;;;5028279;28;19905;-71
2023/05/13 05:03:58;;;;;;;;;;;307.90;2304.00;;;;;;5024011;28;20260;-71
2023/05/13 05:06:24;;;;;;;;;;;307.90;2304.00;;;;;;5034771;28;19928;-73
2023/05/13 05:08:50;;;;;;;;;;;307.90;2304.00;;;;;;5026043;28;19959;-72
2023/05/13 05:11:15;;;;;;;;;;;307.90;2304.00;;;;;;5017534;28;19905;-72
2023/05/13 05:13:41;;;;;;;;;;;307.90;2304.00;;;;;;5035029;28;19958;-72
2023/05/13 05:16:07;;;;;;;;;;;308.00;2304.00;;;;;;5031899;28;19910;-73
2023/05/13 05:18:34;;;;;;;;;;;307.90;2304.00;;;;;;5014419;28;20389;-73
2023/05/13 05:21:00;;;;;;;;;;;308.00;2304.00;;;;;;5014925;28;19905;-73
2023/05/13 05:23:26;;;;;;;;;;;307.90;2304.00;;;;;;5025514;28;19916;-73
2023/05/13 05:25:52;;;;;;;;;;;308.10;2304.00;;;;;;5017153;28;19931;-74
2023/05/13 05:28:17;;;;;;;;;;;308.10;2304.00;;;;;;5016581;28;19925;-79
2023/05/13 05:30:43;;;;;;;;;;;332.80;2329.60;;;;;;5020182;28;19890;-76
2023/05/13 05:33:09;;;;;;;;;;;308.10;2304.00;;;;;;5027722;28;19912;-73
2023/05/13 05:35:36;;;;;;;;;;;308.00;2304.00;;;;;;5016330;28;20374;-71
2023/05/13 05:38:03;;;;;;;;;;;308.00;2304.00;;;;;;5014788;28;20358;-77
2023/05/13 05:40:29;;;;;;;;;;;307.90;2304.00;;;;;;5014373;28;19913;-74
2023/05/13 05:42:55;;;;;;;;;;;307.90;2304.00;;;;;;5020906;28;19905;-75
2023/05/13 05:45:20;;;;;;;;;;;307.90;2304.00;;;;;;5019752;28;20365;-75
2023/05/13 05:47:46;;;;;;;;;;;307.80;2304.00;;;;;;5014280;28;19968;-73
2023/05/13 05:50:12;;;;;;;;;;;307.80;2304.00;;;;;;5025293;28;19944;-79
2023/05/13 05:52:37;;;;;;;;;;;307.80;2304.00;;;;;;5020817;28;19913;-73
2023/05/13 05:55:03;;;;;;;;;;;307.90;2304.00;;;;;;5023830;28;19928;-71
2023/05/13 05:57:28;;;;;;;;;;;308.00;2304.00;;;;;;5022951;28;19905;-73
2023/05/13 05:59:54;;;;;;;;;;;307.90;2304.00;;;;;;5027508;28;19913;-71
2023/05/13 06:02:19;;;;;;;;;;;308.00;2304.00;;;;;;5030816;28;19912;-72
2023/05/13 06:04:45;;;;;;;;;;;308.10;2304.00;;;;;;5028771;28;19927;-75
2023/05/13 06:07:10;;;;;;;;;;;308.10;2304.00;;;;;;5028458;28;19931;-71
2023/05/13 06:09:36;;;;;;;;;;;308.10;2304.00;;;;;;5033119;28;19916;-70
2023/05/13 06:12:01;;;;;;;;;;;308.10;2304.00;;;;;;5027243;28;19912;-71
2023/05/13 06:14:27;;;;;;;;;;;308.10;2304.00;;;;;;5015427;28;19905;-70
2023/05/13 06:16:53;;;;;;;;;;;332.80;2329.60;;;;;;5027598;28;19947;-71
2023/05/13 06:19:18;;;;;;;;;;;332.90;2329.60;;;;;;5028831;28;19909;-72
2023/05/13 06:21:44;;;;;;;;;;;332.90;2329.60;;;;;;5031329;28;19905;-73
2023/05/13 06:24:09;;;;;;;;;;;333.00;2329.60;;;;;;5021917;28;19945;-72
2023/05/13 06:26:35;;;;;;;;;;;333.10;2329.60;;;;;;5018517;28;19963;-72
2023/05/13 06:29:00;;;;;;;;;;;333.20;2329.60;;;;;;5031522;28;20385;-73
2023/05/13 06:31:26;;;;;;;;;;;333.20;2329.60;;;;;;5028405;28;19992;-74
2023/05/13 06:33:52;;;;;;;;;;;333.40;2329.60;;;;;;5027939;28;19912;-72
2023/05/13 06:36:17;;;;;;;;;;;333.60;2329.60;;;;;;5028384;28;20468;-71
2023/05/13 06:38:43;;;;;;;;;;;333.70;2329.60;;;;;;5031735;28;20384;-74
2023/05/13 06:41:08;;;;;;;;;;;358.40;2329.60;;;;;;5021906;28;19989;-73
2023/05/13 06:43:34;;;;;;;;;;;358.50;2329.60;;;;;;5022492;28;19904;-74
2023/05/13 06:45:59;;;;;;;;;;;358.70;2329.60;;;;;;5032427;28;19979;-71
2023/05/13 06:48:25;;;;;;;;;;;358.90;2329.60;;;;;;5022414;28;20316;-72
2023/05/13 06:50:51;;;;;;;;;;;359.20;2329.60;;;;;;5029018;28;19971;-72
2023/05/13 06:53:16;;;;;;;;;;;359.20;2329.60;;;;;;5027746;28;20386;-73
2023/05/13 06:55:42;;;;;;;;;;;359.30;2329.60;;;;;;5032707;28;20273;-72
2023/05/13 06:58:08;;;;;;;;;;;384.20;2329.60;;;;;;5022820;28;19909;-77
2023/05/13 07:00:37;;;;;;;;;;;384.40;2329.60;;;;;;5032225;28;20277;-72
2023/05/13 07:03:03;;;;;;;;;;;384.70;2329.60;;;;;;5025644;28;19995;-73
2023/05/13 07:05:29;;;;;;;;;;;384.70;2329.60;;;;;;5027076;28;20022;-72
2023/05/13 07:07:55;;;;;;;;;;;384.90;2329.60;;;;;;5028535;28;19913;-74
2023/05/13 07:10:21;;;;;;;;;;;409.70;2355.20;;;;;;5029123;28;20370;-73
2023/05/13 07:12:46;;;;;;;;;;;409.70;2355.20;;;;;;5029439;28;19905;-76
2023/05/13 07:15:12;;;;;;;;;;;409.60;2355.20;;;;;;5032093;28;19905;-73
2023/05/13 07:17:38;;;;;;;;;;;409.70;2355.20;;;;;;5027939;28;19906;-73
2023/05/13 07:20:04;;;;;;;;;;;409.80;2355.20;;;;;;5025926;28;19905;-72
2023/05/13 07:22:29;;;;;;;;;;;410.00;2355.20;;;;;;5025804;28;19951;-73
2023/05/13 07:24:55;;;;;;;;;;;410.20;2355.20;;;;;;5028040;28;19955;-74
2023/05/13 07:27:20;;;;;;;;;;;410.50;2355.20;;;;;;5018764;28;20663;-74
2023/05/13 07:29:46;;;;;;;;;;;435.20;2355.20;;;;;;5023658;28;19912;-73
2023/05/13 07:32:12;;;;;;;;;;;435.40;2355.20;;;;;;5026940;28;19905;-73
2023/05/13 07:34:37;;;;;;;;;;;435.50;2355.20;;;;;;5028068;28;19909;-73
2023/05/13 07:37:03;;;;;;;;;;;435.50;2355.20;;;;;;5023540;28;20005;-73
2023/05/13 07:39:29;;;;;;;;;;;435.70;2355.20;;;;;;5029287;28;19909;-72
2023/05/13 07:41:54;;;;;;;;;;;435.80;2355.20;;;;;;5028187;28;19905;-71
2023/05/13 07:44:20;;;;;;;;;;;435.90;2355.20;;;;;;5028088;28;20277;-76
2023/05/13 07:46:46;;;;;;;;;;;435.90;2355.20;;;;;;5030387;28;20368;-73
2023/05/13 07:49:12;;;;;;;;;;;436.10;2355.20;;;;;;5025109;28;20011;-77
2023/05/13 07:51:37;;;;;;;;;;;436.10;2355.20;;;;;;5031057;28;20014;-74
2023/05/13 07:54:03;;;;;;;;;;;436.10;2355.20;;;;;;5027209;28;20402;-71
2023/05/13 07:56:29;;;;;;;;;;;436.00;2355.20;;;;;;5031473;28;19916;-73
2023/05/13 07:58:55;;;;;;;;;;;460.80;2380.80;;;;;;5025789;28;20380;-74
2023/05/13 08:01:21;;;;;;;;;;;461.10;2380.80;;;;;;5032325;28;19925;-73
2023/05/13 08:03:47;;;;;;;;;;;461.10;2380.80;;;;;;5029987;28;19911;-73
2023/05/13 08:06:12;;;;;;;;;;;461.20;2380.80;;;;;;5030938;28;19905;-72
2023/05/13 08:08:38;;;;;;;;;;;461.20;2380.80;;;;;;5023346;28;19917;-72
2023/05/13 08:11:04;;;;;;;;;;;461.20;2380.80;;;;;;5028797;28;20254;-73
2023/05/13 08:13:29;;;;;;;;;;;461.40;2380.80;;;;;;5032928;28;20341;-73
2023/05/13 08:15:55;;;;;;;;;;;461.40;2380.80;;;;;;5035167;28;19906;-73
2023/05/13 08:18:20;;;;;;;;;;;461.30;2380.80;;;;;;5030799;28;19909;-74
2023/05/13 08:20:46;;;;;;;;;;;461.30;2380.80;;;;;;5026443;28;19905;-72
2023/05/13 08:23:11;;;;;;;;;;;461.20;2380.80;;;;;;5028881;28;19911;-72
2023/05/13 08:25:37;;;;;;;;;;;461.40;2380.80;;;;;;5028814;28;20365;-71
2023/05/13 08:28:03;;;;;;;;;;;461.40;2380.80;;;;;;5030990;28;19936;-72
2023/05/13 08:30:28;;;;;;;;;;;461.50;2380.80;;;;;;5030797;28;20052;-72
2023/05/13 08:32:54;;;;;;;;;;;461.60;2380.80;;;;;;5022370;28;19912;-71
2023/05/13 08:35:20;;;;;;;;;;;461.60;2380.80;;;;;;5030456;28;19909;-74
2023/05/13 08:37:46;;;;;;;;;;;461.50;2380.80;;;;;;5028987;28;19951;-72
2023/05/13 08:40:12;;;;;;;;;;;461.50;2380.80;;;;;;5035189;28;19904;-74
2023/05/13 08:42:38;;;;;;;;;;;461.50;2380.80;;;;;;5032375;28;19941;-72
2023/05/13 08:45:06;;;;;;;;;;;461.70;2380.80;;;;;;5026003;28;19956;-73
2023/05/13 08:47:44;;;;;;;;;;;461.60;2380.80;;;;;;5034980;28;20419;-72
2023/05/13 08:50:10;;;;;;;;;;;486.40;2380.80;;;;;;5026531;28;19911;-72
2023/05/13 08:52:36;;;;;;;;;;;486.40;2380.80;;;;;;5022749;28;19905;-72
2023/05/13 08:55:02;;;;;;;;;;;486.50;2380.80;;;;;;5030947;28;19928;-72
2023/05/13 08:57:28;;;;;;;;;;;486.60;2380.80;;;;;;5025939;28;20013;-72
2023/05/13 08:59:54;;;;;;;;;;;486.70;2380.80;;;;;;5027366;28;20346;-72
2023/05/13 09:02:20;;;;;;;;;;;486.90;2380.80;;;;;;5035365;28;19958;-72
2023/05/13 09:04:48;;;;;;;;;;;487.10;2380.80;;;;;;5027875;28;19915;-71
2023/05/13 09:07:14;;;;;;;;;;;487.10;2304.00;;;;;;5031040;28;20375;-72
2023/05/13 09:09:39;;;;;;;;;;;487.30;2380.80;;;;;;5026668;28;19992;-72
2023/05/13 09:12:05;;;;;;;;;;;487.30;2278.40;;;;;;5029103;28;19944;-71
2023/05/13 09:14:31;;;;;;;;;;;512.00;2380.80;;;;;;5026120;28;19997;-72
2023/05/13 09:16:57;;;;;;;;;;;512.20;2329.60;;;;;;5029202;28;19905;-71
2023/05/13 09:19:23;;;;;;;;;;;512.30;2278.40;;;;;;5027135;28;19905;-71
2023/05/13 09:21:48;;;;;;;;;;;512.40;2329.60;;;;;;5025124;28;19916;-72
2023/05/13 09:24:17;;;;;;;;;;;512.20;2227.20;;;;;;5028545;28;20289;-70
2023/05/13 09:26:43;;;;;;;;;;;512.20;2201.60;;;;;;5028511;28;19943;-71
2023/05/13 09:29:18;;;;;;;;;;;512.40;2124.80;;;;;;5025290;28;19997;-71
2023/05/13 09:31:44;;;;;;;;;;;512.60;2124.80;;;;;;5027278;28;20258;-75
2023/05/13 09:34:09;;;;;;;;;;;512.50;2176.00;;;;;;5032844;28;19905;-71
2023/05/13 09:36:35;;;;;;;;;;;512.70;2124.80;;;;;;5027439;28;19905;-71
2023/05/13 09:39:01;;;;;;;;;;;512.90;2201.60;;;;;;5030301;28;19905;-71
2023/05/13 09:41:29;;;;;;;;;;;512.80;2124.80;;;;;;5024329;28;19912;-71
2023/05/13 09:43:54;;;;;;;;;;;512.90;2380.80;;;;;;5029415;28;19905;-70
2023/05/13 09:46:20;;;;;;;;;;;537.80;2176.00;;;;;;5023763;28;19992;-71
2023/05/13 09:48:46;;;;;;;;;;;537.90;2124.80;;;;;;5028629;28;20316;-71
2023/05/13 09:51:13;;;;;;;;;;;538.00;2022.40;;;;;;5028582;28;19936;-71
2023/05/13 09:53:39;;;;;;;;;;;538.30;2022.40;;;;;;5025247;28;20312;-72
2023/05/13 09:56:08;;;;;;;;;;;538.40;2124.80;;;;;;5031308;28;19962;-72
2023/05/13 09:58:34;;;;;;;;;;;538.50;1894.40;;;;;;5030361;28;20000;-71
2023/05/13 10:01:01;;;;;;;;;;;538.50;1894.40;;;;;;5023071;28;19963;-71
2023/05/13 10:03:27;;;;;;;;;;;538.40;1843.20;;;;;;5024254;28;19940;-75
2023/05/13 10:05:54;;;;;;;;;;;563.30;1792.00;;;;;;5028638;28;20365;-73
2023/05/13 10:08:20;;;;;;;;;;;563.60;1868.80;;;;;;5024502;28;19979;-73
2023/05/13 10:10:46;;;;;;;;;;;563.70;1766.40;;;;;;5023804;28;19905;-74
2023/05/13 10:13:13;;;;;;;;;;;563.90;1792.00;;;;;;5033110;28;19938;-72
2023/05/13 10:15:49;;;;;;;;;;;564.10;1715.20;;;;;;5031741;28;20000;-74
2023/05/13 10:18:15;;;;;;;;;;;563.60;1664.00;;;;;;5026008;28;19911;-72
2023/05/13 10:20:41;;;;;;;;;;;563.80;1740.80;;;;;;5022110;28;20340;-73
2023/05/13 10:23:07;;;;;;;;;;;564.10;1740.80;;;;;;5030389;28;20332;-73
2023/05/13 10:25:32;;;;;;;;;;;589.00;1715.20;;;;;;5024050;28;20403;-73
2023/05/13 10:27:58;;;;;;;;;;;589.00;1715.20;;;;;;5027545;28;19921;-74
2023/05/13 10:30:26;;;;;;;;;;;589.30;1689.60;;;;;;5024628;28;19952;-74
2023/05/13 10:32:53;;;;;;;;;;;589.30;1612.80;;;;;;5025978;28;19905;-73
2023/05/13 10:35:19;;;;;;;;;;;589.00;1638.40;;;;;;5025529;28;19909;-74
2023/05/13 10:37:54;;;;;;;;;;;589.30;1612.80;;;;;;5022860;28;19945;-73
2023/05/13 10:40:22;;;;;;;;;;;589.30;1587.20;;;;;;5027324;28;20329;-73
2023/05/13 10:42:53;;;;;;;;;;;589.30;1561.60;;;;;;5025072;28;19944;-72
2023/05/13 10:45:24;;;;;;;;;;;589.60;1536.00;;;;;;5056316;28;19952;-74
2023/05/13 10:47:51;;;;;;;;;;;589.70;1612.80;;;;;;5031148;28;20347;-73
2023/05/13 10:50:25;;;;;;;;;;;589.70;1561.60;;;;;;5024670;28;19916;-73
2023/05/13 10:52:54;;;;;;;;;;;589.30;1587.20;;;;;;5029036;28;19912;-73
2023/05/13 10:55:20;;;;;;;;;;;588.80;1638.40;;;;;;5031780;28;19921;-74
2023/05/13 10:58:04;;;;;;;;;;;563.90;1792.00;;;;;;5027930;28;19917;-73
2023/05/13 11:00:30;;;;;;;;;;;564.10;1766.40;;;;;;5029704;28;19909;-73
2023/05/13 11:02:56;;;;;;;;;;;563.70;1766.40;;;;;;5029326;28;19912;-75
2023/05/13 11:05:21;;;;;;;;;;;564.10;1689.60;;;;;;5029173;28;19996;-73
2023/05/13 11:07:57;;;;;;;;;;;563.70;1664.00;;;;;;5026862;28;19917;-73
2023/05/13 11:10:23;;;;;;;;;;;563.50;1715.20;;;;;;5023832;28;20325;-73
2023/05/13 11:13:10;;;;;;;;;;;563.30;1740.80;;;;;;5031760;28;19909;-73
2023/05/13 11:15:42;;;;;;;;;;;538.50;1740.80;;;;;;5025773;28;19905;-73
2023/05/13 11:18:08;;;;;;;;;;;538.40;1766.40;;;;;;5025050;28;20421;-72
2023/05/13 11:20:36;;;;;;;;;;;538.30;1792.00;;;;;;5032410;28;19909;-73
2023/05/13 11:23:01;;;;;;;;;;;538.30;1792.00;;;;;;5032716;28;19955;-72
2023/05/13 11:25:27;;;;;;;;;;;563.80;1817.60;;;;;;5029311;28;19913;-74
2023/05/13 11:27:52;;;;;;;;;;;563.80;1766.40;;;;;;5029976;28;19909;-74
2023/05/13 11:30:22;;;;;;;;;;;563.40;1740.80;;;;;;5030945;28;19920;-74
2023/05/13 11:32:51;;;;;;;;;;;538.50;1740.80;;;;;;5031636;28;19915;-73
2023/05/13 11:35:26;;;;;;;;;;;538.30;1740.80;;;;;;5029842;28;20353;-73
2023/05/13 11:37:53;;;;;;;;;;;538.20;1766.40;;;;;;5034020;28;19920;-73
2023/05/13 11:40:23;;;;;;;;;;;538.30;1792.00;;;;;;5025160;28;19941;-73
2023/05/13 11:42:48;;;;;;;;;;;538.50;1792.00;;;;;;5034596;28;19915;-75
2023/05/13 11:45:15;;;;;;;;;;;563.20;1792.00;;;;;;5027171;28;20288;-73
2023/05/13 11:47:41;;;;;;;;;;;563.60;1766.40;;;;;;5035461;28;19979;-73
2023/05/13 11:50:17;;;;;;;;;;;563.60;1740.80;;;;;;5027322;28;19942;-73
2023/05/13 11:52:43;;;;;;;;;;;588.80;1715.20;;;;;;5035549;28;19909;-73
2023/05/13 11:55:08;;;;;;;;;;;563.90;1689.60;;;;;;5032961;28;19931;-73
2023/05/13 11:57:35;;;;;;;;;;;563.80;1766.40;;;;;;5032501;28;20281;-74
2023/05/13 12:00:03;;;;;;;;;;;563.50;1715.20;;;;;;5027476;28;19905;-73
2023/05/13 12:02:30;;;;;;;;;;;563.30;1689.60;;;;;;5034498;28;19963;-73
2023/05/13 12:05:03;;;;;;;;;;;563.20;1766.40;;;;;;5028326;28;19905;-73
2023/05/13 12:07:29;;;;;;;;;;;563.20;1740.80;;;;;;5026358;28;19913;-75
2023/05/13 12:09:56;;;;;;;;;;;563.30;1792.00;;;;;;5026280;28;19912;-75
2023/05/13 12:12:22;;;;;;;;;;;563.40;1715.20;;;;;;5030908;28;20410;-74
2023/05/13 12:14:51;;;;;;;;;;;563.30;1715.20;;;;;;5026559;28;19951;-74
2023/05/13 12:17:17;;;;;;;;;;;563.30;1664.00;;;;;;5029964;28;19913;-74
2023/05/13 12:20:02;;;;;;;;;;;563.30;1689.60;;;;;;5032887;28;19913;-74
2023/05/13 12:22:28;;;;;;;;;;;564.10;1664.00;;;;;;5032278;28;20007;-73
2023/05/13 12:24:53;;;;;;;;;;;589.00;1638.40;;;;;;5031289;28;20004;-74
2023/05/13 12:27:20;;;;;;;;;;;589.40;1587.20;;;;;;5020142;28;19913;-75
2023/05/13 12:29:46;;;;;;;;;;;589.50;1561.60;;;;;;5030762;28;19916;-74
2023/05/13 12:32:15;;;;;;;;;;;589.10;1561.60;;;;;;5026708;28;20405;-74
2023/05/13 12:34:46;;;;;;;;;;;589.30;1536.00;;;;;;5066626;28;19912;-73
2023/05/13 12:37:12;;;;;;;;;;;589.00;1587.20;;;;;;5029892;28;19952;-73
2023/05/13 12:39:39;;;;;;;;;;;589.00;1561.60;;;;;;5030634;28;19909;-73
2023/05/13 12:42:04;;;;;;;;;;;589.30;1510.40;;;;;;5028133;28;19905;-73
2023/05/13 12:44:30;;;;;;;;;;;589.70;1536.00;;;;;;5028558;28;19912;-74
2023/05/13 12:46:57;;;;;;;;;;;614.40;1433.60;;;;;;5029436;28;19905;-74
2023/05/13 12:49:22;;;;;;;;;;;614.60;1433.60;;;;;;5029126;28;19913;-75
2023/05/13 12:51:48;;;;;;;;;;;614.40;1459.20;;;;;;5024105;28;19974;-73
2023/05/13 12:54:14;;;;;;;;;;;614.60;1459.20;;;;;;5035044;28;19924;-80
2023/05/13 12:56:40;;;;;;;;;;;614.80;1459.20;;;;;;5032343;28;20269;-73
2023/05/13 12:59:05;;;;;;;;;;;614.90;1459.20;;;;;;5025131;28;19906;-74
2023/05/13 13:01:31;;;;;;;;;;;;;;;;;;5028189;28;20399;-73
2023/05/13 13:03:57;;;;;;;;;;;615.10;1484.80;;;;;;5030834;28;19905;-74
2023/05/13 13:06:22;;;;;;;;;;;615.30;1459.20;;;;;;5030637;28;20708;-73
2023/05/13 13:08:48;;;;;;;;;;;615.10;1433.60;;;;;;5064364;28;19917;-73
2023/05/13 13:11:17;;;;;;;;;;;615.10;1433.60;;;;;;5028090;28;19999;-73
2023/05/13 13:13:45;;;;;;;;;;;615.00;1459.20;;;;;;5058786;28;20369;-73
2023/05/13 13:16:12;;;;;;;;;;;615.00;1459.20;;;;;;5022167;28;20358;-73
2023/05/13 13:18:37;;;;;;;;;;;615.00;1459.20;;;;;;5031207;28;20000;-74
2023/05/13 13:21:04;;;;;;;;;;;615.00;1408.00;;;;;;5033095;28;20000;-73
2023/05/13 13:23:30;;;;;;;;;;;615.00;1408.00;;;;;;5025538;28;19909;-73
2023/05/13 13:25:58;;;;;;;;;;;614.70;1433.60;;;;;;5030538;28;19917;-74
2023/05/13 13:28:24;;;;;;;;;;;614.40;1433.60;;;;;;5028318;28;19917;-74
2023/05/13 13:30:49;;;;;;;;;;;589.50;1433.60;;;;;;5027596;28;19912;-73
2023/05/13 13:33:15;;;;;;;;;;;589.70;1459.20;;;;;;5023197;28;19905;-73
2023/05/13 13:35:44;;;;;;;;;;;589.60;1459.20;;;;;;5029129;28;19905;-73
2023/05/13 13:38:09;;;;;;;;;;;589.70;1459.20;;;;;;5029335;28;19912;-73